createdAt,value
2022-09-01T00:00:03.472Z,97699.09
2022-09-01T00:02:34.663Z,97703.47
2022-09-01T00:05:07.564Z,97701.91
2022-09-01T00:07:36.478Z,97692.53
2022-09-01T00:10:09.036Z,97697.84
2022-09-01T00:12:38.047Z,97697.69
2022-09-01T00:15:07.958Z,97702.03
2022-09-01T00:17:36.372Z,97698.81
2022-09-01T00:20:05.741Z,97689.41
2022-09-01T00:22:34.673Z,97697.19
2022-09-01T00:25:03.183Z,97700.50
2022-09-01T00:27:32.792Z,97691.84
2022-09-01T00:30:01.577Z,97691.84
2022-09-01T00:32:30.753Z,97697.19
2022-09-01T00:34:59.129Z,97697.47
2022-09-01T00:37:27.474Z,97698.28
2022-09-01T00:39:55.783Z,97695.84
2022-09-01T00:42:24.827Z,97696.56
2022-09-01T00:44:54.522Z,97695.91
2022-09-01T00:47:23.163Z,97701.75
2022-09-01T00:49:52.719Z,97698.25
2022-09-01T00:52:26.769Z,97695.91
2022-09-01T00:54:56.974Z,97696.59
2022-09-01T00:57:25.322Z,97697.25
2022-09-01T00:59:58.221Z,97687.88
2022-09-01T01:02:26.745Z,97682.75
2022-09-01T01:04:59.630Z,97685.31
2022-09-01T01:07:28.668Z,97688.72
2022-09-01T01:09:57.587Z,97691.28
2022-09-01T01:12:28.181Z,97697.38
2022-09-01T01:14:57.982Z,97692.06
2022-09-01T01:17:26.421Z,97689.59
2022-09-01T01:20:13.956Z,97690.41
2022-09-01T01:23:05.775Z,97687.88
2022-09-01T01:25:40.580Z,97693.81
2022-09-01T01:28:13.679Z,97694.78
2022-09-01T01:30:44.843Z,97693.09
2022-09-01T01:33:13.294Z,97690.16
2022-09-01T01:35:42.482Z,97691.09
2022-09-01T01:38:11.424Z,97691.84
2022-09-01T01:40:41.583Z,97691.06
2022-09-01T01:43:12.627Z,97695.34
2022-09-01T01:45:41.008Z,97682.50
2022-09-01T01:48:10.676Z,97681.56
2022-09-01T01:50:40.949Z,97684.09
2022-09-01T01:53:12.355Z,97688.31
2022-09-01T01:55:43.975Z,97684.78
2022-09-01T01:58:15.077Z,97682.97
2022-09-01T02:00:47.651Z,97681.31
2022-09-01T02:03:19.177Z,97683.06
2022-09-01T02:05:49.153Z,97694.44
2022-09-01T02:08:22.854Z,97677.81
2022-09-01T02:10:54.832Z,97679.53
2022-09-01T02:13:26.595Z,97687.25
2022-09-01T02:15:58.628Z,97688.88
2022-09-01T02:18:30.094Z,97687.06
2022-09-01T02:21:01.011Z,97685.38
2022-09-01T02:23:30.288Z,97678.38
2022-09-01T02:26:16.015Z,97677.56
2022-09-01T02:28:55.556Z,97684.66
2022-09-01T02:31:28.116Z,97675.16
2022-09-01T02:33:57.744Z,97679.47
2022-09-01T02:36:26.706Z,97680.31
2022-09-01T02:38:56.823Z,97682.72
2022-09-01T02:41:34.760Z,97671.47
2022-09-01T02:44:05.882Z,97678.31
2022-09-01T02:46:34.703Z,97675.78
2022-09-01T02:49:04.645Z,97666.28
2022-09-01T02:51:33.451Z,97668.97
2022-09-01T02:54:02.147Z,97668.19
2022-09-01T02:56:31.956Z,97676.94
2022-09-01T02:59:00.309Z,97670.94
2022-09-01T03:01:31.053Z,97672.47
2022-09-01T03:04:02.659Z,97670.56
2022-09-01T03:06:34.792Z,97661.78
2022-09-01T03:09:04.833Z,97666.16
2022-09-01T03:11:36.815Z,97667.84
2022-09-01T03:14:05.372Z,97666.13
2022-09-01T03:16:33.918Z,97665.22
2022-09-01T03:19:04.047Z,97664.00
2022-09-01T03:21:32.769Z,97644.94
2022-09-01T03:24:02.250Z,97644.34
2022-09-01T03:26:32.231Z,97641.47
2022-09-01T03:29:02.019Z,97632.84
2022-09-01T03:31:31.346Z,97635.78
2022-09-01T03:34:03.445Z,97635.78
2022-09-01T03:36:35.555Z,97640.91
2022-09-01T03:39:03.942Z,97634.38
2022-09-01T03:41:33.574Z,97623.53
2022-09-01T03:44:03.566Z,97619.38
2022-09-01T03:46:36.945Z,97623.00
2022-09-01T03:49:08.269Z,97624.31
2022-09-01T03:51:40.566Z,97626.75
2022-09-01T03:54:10.229Z,97622.84
2022-09-01T03:56:41.868Z,97620.97
2022-09-01T03:59:17.850Z,97624.81
2022-09-01T04:01:47.911Z,97619.47
2022-09-01T04:04:17.286Z,97609.66
2022-09-01T04:06:47.276Z,97610.88
2022-09-01T04:09:16.271Z,97611.41
2022-09-01T04:11:47.178Z,97615.75
2022-09-01T04:14:18.529Z,97608.03
2022-09-01T04:17:06.354Z,97615.78
2022-09-01T04:19:37.350Z,97604.41
2022-09-01T04:22:07.983Z,97600.03
2022-09-01T04:24:46.968Z,97601.44
2022-09-01T04:27:18.894Z,97603.75
2022-09-01T04:29:48.841Z,97591.34
2022-09-01T04:32:21.478Z,97587.69
2022-09-01T04:34:53.311Z,97577.59
2022-09-01T04:37:23.823Z,97577.78
2022-09-01T04:39:57.557Z,97584.66
2022-09-01T04:42:29.459Z,97578.44
2022-09-01T04:45:05.075Z,97566.28
2022-09-01T04:47:42.265Z,97575.41
2022-09-01T04:50:17.470Z,97578.75
2022-09-01T04:53:07.345Z,97579.06
2022-09-01T04:55:43.706Z,97572.22
2022-09-01T04:58:17.467Z,97567.03
2022-09-01T05:00:52.108Z,97576.16
2022-09-01T05:03:24.561Z,97576.66
2022-09-01T05:06:01.325Z,97578.59
2022-09-01T05:08:32.720Z,97581.28
2022-09-01T05:11:07.919Z,97574.66
2022-09-01T05:13:40.466Z,97581.59
2022-09-01T05:16:13.334Z,97591.31
2022-09-01T05:18:47.972Z,97588.75
2022-09-01T05:21:20.005Z,97583.50
2022-09-01T05:23:52.001Z,97592.03
2022-09-01T05:26:24.157Z,97595.34
2022-09-01T05:28:55.099Z,97589.41
2022-09-01T05:31:28.272Z,97587.81
2022-09-01T05:33:58.360Z,97585.91
2022-09-01T05:36:27.015Z,97585.81
2022-09-01T05:38:59.201Z,97586.03
2022-09-01T05:41:28.651Z,97583.28
2022-09-01T05:44:00.600Z,97581.59
2022-09-01T05:46:31.474Z,97576.53
2022-09-01T05:49:02.483Z,97582.47
2022-09-01T05:51:44.465Z,97593.63
2022-09-01T05:54:15.272Z,97574.78
2022-09-01T05:56:45.151Z,97571.47
2022-09-01T05:59:25.411Z,97569.75
2022-09-01T06:02:01.050Z,97571.41
2022-09-01T06:04:30.395Z,97594.41
2022-09-01T06:07:09.376Z,97592.25
2022-09-01T06:09:43.143Z,97590.75
2022-09-01T06:12:18.088Z,97585.13
2022-09-01T06:14:48.511Z,97587.28
2022-09-01T06:17:25.195Z,97586.38
2022-09-01T06:19:56.059Z,97588.41
2022-09-01T06:22:25.536Z,97581.78
2022-09-01T06:24:59.496Z,97584.31
2022-09-01T06:27:32.128Z,97581.50
2022-09-01T06:30:00.627Z,97578.09
2022-09-01T06:32:30.483Z,97574.19
2022-09-01T06:35:00.610Z,97570.34
2022-09-01T06:37:30.627Z,97580.72
2022-09-01T06:40:03.754Z,97591.53
2022-09-01T06:42:35.366Z,97581.00
2022-09-01T06:45:03.940Z,97581.25
2022-09-01T06:47:35.530Z,97577.59
2022-09-01T06:50:03.951Z,97576.69
2022-09-01T06:55:23.432Z,97579.19
2022-09-01T06:58:13.942Z,97575.47
2022-09-01T07:00:45.072Z,97535.00
2022-09-01T07:03:17.846Z,97524.78
2022-09-01T07:06:07.398Z,97527.09
2022-09-01T07:17:34.766Z,97578.78
2022-09-01T07:23:10.982Z,97579.50
2022-09-01T07:26:04.331Z,97571.69
2022-09-01T07:28:36.659Z,97573.31
2022-09-01T07:39:51.260Z,97566.56
2022-09-01T07:49:28.458Z,97572.97
2022-09-01T07:51:50.212Z,97567.22
2022-09-01T07:54:24.086Z,97568.81
2022-09-01T07:56:55.699Z,97567.97
2022-09-01T07:59:28.487Z,97567.19
2022-09-01T08:02:22.976Z,97565.88
2022-09-01T08:04:51.553Z,97565.13
2022-09-01T08:07:20.662Z,97561.38
2022-09-01T08:09:50.438Z,97574.41
2022-09-01T08:12:18.913Z,97573.13
2022-09-01T08:17:58.046Z,97577.19
2022-09-01T08:20:30.560Z,97574.00
2022-09-01T08:23:26.497Z,97572.34
2022-09-01T08:25:56.425Z,97566.56
2022-09-01T08:28:28.422Z,97570.34
2022-09-01T08:30:59.464Z,97579.53
2022-09-01T08:33:29.550Z,97577.00
2022-09-01T08:35:57.870Z,97570.31
2022-09-01T08:38:29.161Z,97576.56
2022-09-01T08:40:59.962Z,97583.44
2022-09-01T08:43:40.243Z,97578.41
2022-09-01T08:46:13.868Z,97577.25
2022-09-01T08:51:44.789Z,97575.72
2022-09-01T08:54:29.353Z,97569.59
2022-09-01T08:57:02.946Z,97574.09
2022-09-01T08:59:51.488Z,97565.97
2022-09-01T09:02:41.126Z,97566.13
2022-09-01T09:05:24.759Z,97549.88
2022-09-01T09:08:18.987Z,97561.31
2022-09-01T09:10:54.037Z,97548.16
2022-09-01T09:13:30.663Z,97552.28
2022-09-01T09:16:08.724Z,97553.44
2022-09-01T09:18:54.721Z,97539.53
2022-09-01T09:21:27.238Z,97549.09
2022-09-01T09:23:58.366Z,97545.25
2022-09-01T09:26:27.441Z,97548.09
2022-09-01T09:28:57.734Z,97537.63
2022-09-01T09:31:30.214Z,97544.31
2022-09-01T09:33:59.335Z,97547.19
2022-09-01T09:36:33.101Z,97547.31
2022-09-01T09:39:12.902Z,97540.66
2022-09-01T09:41:42.324Z,97532.53
2022-09-01T09:44:27.240Z,97529.72
2022-09-01T09:46:55.651Z,97526.09
2022-09-01T09:49:35.111Z,97521.66
2022-09-01T09:52:19.310Z,97525.81
2022-09-01T09:55:03.880Z,97517.53
2022-09-01T09:57:35.556Z,97520.00
2022-09-01T10:00:10.315Z,97516.19
2022-09-01T10:02:44.909Z,97516.00
2022-09-01T10:05:30.120Z,97515.72
2022-09-01T10:07:59.613Z,97509.47
2022-09-01T10:10:31.814Z,97509.44
2022-09-01T10:13:02.105Z,97508.81
2022-09-01T10:15:34.213Z,97515.38
2022-09-01T10:18:29.069Z,97506.84
2022-09-01T10:21:00.730Z,97505.41
2022-09-01T10:23:31.749Z,97505.03
2022-09-01T10:26:05.904Z,97513.41
2022-09-01T10:28:35.745Z,97513.41
2022-09-01T10:31:09.157Z,97516.84
2022-09-01T10:33:39.104Z,97498.50
2022-09-01T10:36:09.613Z,97505.69
2022-09-01T10:38:39.253Z,97509.22
2022-09-01T10:41:15.904Z,97509.03
2022-09-01T10:43:45.887Z,97513.00
2022-09-01T10:46:51.078Z,97496.00
2022-09-01T10:49:38.991Z,97502.97
2022-09-01T10:52:12.952Z,97498.06
2022-09-01T10:54:55.841Z,97500.59
2022-09-01T10:57:34.437Z,97501.66
2022-09-01T11:03:56.482Z,97510.25
2022-09-01T11:07:17.231Z,97512.63
2022-09-01T11:10:38.324Z,97515.31
2022-09-01T11:13:30.321Z,97524.19
2022-09-01T11:19:34.101Z,97529.25
2022-09-01T11:22:25.957Z,97530.44
2022-09-01T11:25:13.925Z,97525.88
2022-09-01T11:28:00.681Z,97529.81
2022-09-01T11:30:39.263Z,97527.56
2022-09-01T11:33:35.877Z,97526.16
2022-09-01T11:36:07.865Z,97521.41
2022-09-01T11:38:49.098Z,97525.19
2022-09-01T11:41:34.015Z,97521.88
2022-09-01T11:44:04.912Z,97524.72
2022-09-01T11:46:34.940Z,97516.16
2022-09-01T11:49:07.641Z,97526.94
2022-09-01T11:51:47.873Z,97524.38
2022-09-01T11:54:16.557Z,97521.09
2022-09-01T11:56:45.009Z,97521.91
2022-09-01T11:59:13.281Z,97516.00
2022-09-01T12:01:41.820Z,97505.88
2022-09-01T12:04:22.365Z,97513.72
2022-09-01T12:06:58.144Z,97512.97
2022-09-01T12:09:36.687Z,97509.94
2022-09-01T12:12:06.552Z,97511.81
2022-09-01T12:15:02.166Z,97509.81
2022-09-01T12:17:24.177Z,97512.22
2022-09-01T12:19:52.705Z,97527.72
2022-09-01T12:22:24.341Z,97515.28
2022-09-01T12:24:53.906Z,97526.69
2022-09-01T12:27:24.007Z,97519.25
2022-09-01T12:29:52.784Z,97524.19
2022-09-01T12:32:21.354Z,97523.09
2022-09-01T12:35:04.250Z,97528.63
2022-09-01T12:37:37.044Z,97527.41
2022-09-01T12:40:06.874Z,97516.47
2022-09-01T12:42:41.159Z,97514.69
2022-09-01T12:45:13.217Z,97517.97
2022-09-01T12:47:51.365Z,97515.84
2022-09-01T12:50:44.109Z,97518.81
2022-09-01T12:53:36.670Z,97519.81
2022-09-01T12:56:20.471Z,97514.69
2022-09-01T12:58:52.255Z,97513.53
2022-09-01T13:01:32.472Z,97512.88
2022-09-01T13:04:25.839Z,97520.44
2022-09-01T13:06:54.820Z,97517.91
2022-09-01T13:09:24.572Z,97515.69
2022-09-01T13:12:08.363Z,97522.88
2022-09-01T13:14:36.687Z,97522.75
2022-09-01T13:17:06.109Z,97524.00
2022-09-01T13:19:42.492Z,97518.88
2022-09-01T13:22:11.195Z,97520.88
2022-09-01T13:24:43.779Z,97522.13
2022-09-01T13:27:21.189Z,97517.13
2022-09-01T13:29:50.384Z,97521.69
2022-09-01T13:32:21.273Z,97516.75
2022-09-01T13:34:51.929Z,97518.75
2022-09-01T13:37:20.769Z,97518.16
2022-09-01T13:39:51.483Z,97514.72
2022-09-01T13:42:19.915Z,97518.31
2022-09-01T13:44:52.363Z,97521.66
2022-09-01T13:47:32.012Z,97525.88
2022-09-01T13:50:11.160Z,97518.56
2022-09-01T13:52:40.879Z,97514.31
2022-09-01T13:55:13.155Z,97521.56
2022-09-01T13:57:41.469Z,97521.81
2022-09-01T14:00:12.359Z,97508.97
2022-09-01T14:02:41.176Z,97523.47
2022-09-01T14:05:10.494Z,97514.72
2022-09-01T14:07:38.823Z,97522.28
2022-09-01T14:10:08.988Z,97533.47
2022-09-01T14:12:39.622Z,97522.94
2022-09-01T14:15:11.652Z,97522.66
2022-09-01T14:17:41.970Z,97529.25
2022-09-01T14:20:14.515Z,97526.28
2022-09-01T14:22:42.817Z,97530.31
2022-09-01T14:25:12.176Z,97535.72
2022-09-01T14:27:44.632Z,97523.28
2022-09-01T14:30:16.733Z,97527.94
2022-09-01T14:32:45.043Z,97532.28
2022-09-01T14:35:13.784Z,97530.75
2022-09-01T14:37:42.411Z,97531.72
2022-09-01T14:40:16.953Z,97523.63
2022-09-01T14:42:49.291Z,97532.78
2022-09-01T14:45:19.672Z,97537.19
2022-09-01T14:47:48.688Z,97529.31
2022-09-01T14:50:22.922Z,97532.00
2022-09-01T14:52:54.072Z,97532.47
2022-09-01T14:55:23.481Z,97524.38
2022-09-01T14:57:55.061Z,97525.06
2022-09-01T15:00:25.083Z,97522.09
2022-09-01T15:02:54.593Z,97538.84
2022-09-01T15:05:23.784Z,97535.03
2022-09-01T15:07:53.091Z,97517.78
2022-09-01T15:10:25.804Z,97529.44
2022-09-01T15:12:57.326Z,97528.94
2022-09-01T15:15:26.047Z,97532.47
2022-09-01T15:17:54.533Z,97531.38
2022-09-01T15:20:40.877Z,97535.41
2022-09-01T15:23:09.472Z,97528.00
2022-09-01T15:25:37.774Z,97529.72
2022-09-01T15:28:07.904Z,97523.94
2022-09-01T15:30:37.029Z,97535.03
2022-09-01T15:33:05.836Z,97531.63
2022-09-01T15:35:34.304Z,97535.97
2022-09-01T15:38:02.854Z,97537.91
2022-09-01T15:40:31.211Z,97532.44
2022-09-01T15:43:00.142Z,97534.38
2022-09-01T15:45:30.325Z,97530.78
2022-09-01T15:47:58.586Z,97528.09
2022-09-01T15:50:28.221Z,97528.28
2022-09-01T15:52:57.849Z,97529.09
2022-09-01T15:55:28.337Z,97530.50
2022-09-01T15:57:56.678Z,97534.31
2022-09-01T16:00:27.584Z,97533.84
2022-09-01T16:03:01.840Z,97538.28
2022-09-01T16:05:30.604Z,97538.81
2022-09-01T16:07:59.104Z,97540.44
2022-09-01T16:10:27.630Z,97537.50
2022-09-01T16:12:56.525Z,97540.06
2022-09-01T16:15:26.416Z,97537.75
2022-09-01T16:18:20.844Z,97549.78
2022-09-01T16:20:58.059Z,97537.22
2022-09-01T16:23:34.085Z,97540.97
2022-09-01T16:26:02.429Z,97551.06
2022-09-01T16:28:35.873Z,97552.28
2022-09-01T16:31:08.080Z,97548.22
2022-09-01T16:36:19.954Z,97553.53
2022-09-01T16:38:50.150Z,97549.81
2022-09-01T16:41:36.999Z,97545.09
2022-09-01T16:44:14.330Z,97544.00
2022-09-01T16:46:47.077Z,97551.72
2022-09-01T16:49:22.997Z,97557.25
2022-09-01T16:51:58.912Z,97549.28
2022-09-01T16:54:35.438Z,97559.09
2022-09-01T16:57:08.965Z,97560.00
2022-09-01T16:59:42.310Z,97561.94
2022-09-01T17:02:24.579Z,97562.47
2022-09-01T17:04:58.175Z,97566.69
2022-09-01T17:07:30.392Z,97567.25
2022-09-01T17:10:04.595Z,97560.75
2022-09-01T17:12:40.413Z,97576.69
2022-09-01T17:15:11.626Z,97574.25
2022-09-01T17:17:45.978Z,97572.03
2022-09-01T17:20:16.301Z,97578.97
2022-09-01T17:22:52.090Z,97579.03
2022-09-01T17:25:29.147Z,97578.50
2022-09-01T17:28:01.653Z,97581.13
2022-09-01T17:30:32.236Z,97586.50
2022-09-01T17:33:17.679Z,97586.16
2022-09-01T17:36:01.079Z,97588.22
2022-09-01T17:38:37.070Z,97586.38
2022-09-01T17:41:16.127Z,97585.00
2022-09-01T17:43:53.047Z,97591.56
2022-09-01T17:46:27.416Z,97595.13
2022-09-01T17:48:58.156Z,97598.88
2022-09-01T17:51:32.469Z,97598.34
2022-09-01T17:54:09.745Z,97602.41
2022-09-01T17:56:43.774Z,97602.16
2022-09-01T17:59:16.827Z,97608.66
2022-09-01T18:01:52.715Z,97612.22
2022-09-01T18:04:53.104Z,97615.22
2022-09-01T18:07:46.044Z,97621.28
2022-09-01T18:10:17.267Z,97622.56
2022-09-01T18:12:46.549Z,97627.13
2022-09-01T18:15:20.392Z,97631.63
2022-09-01T18:17:53.676Z,97629.09
2022-09-01T18:20:26.606Z,97640.19
2022-09-01T18:23:02.682Z,97642.84
2022-09-01T18:25:38.361Z,97645.16
2022-09-01T18:28:06.613Z,97646.63
2022-09-01T18:30:52.585Z,97644.72
2022-09-01T18:33:28.139Z,97652.91
2022-09-01T18:36:08.988Z,97654.84
2022-09-01T18:38:44.457Z,97656.28
2022-09-01T18:41:29.712Z,97653.28
2022-09-01T18:44:05.661Z,97654.97
2022-09-01T18:46:40.244Z,97658.19
2022-09-01T18:49:15.926Z,97665.56
2022-09-01T18:51:56.879Z,97668.34
2022-09-01T18:54:31.405Z,97658.19
2022-09-01T18:57:02.938Z,97654.41
2022-09-01T18:59:44.471Z,97651.84
2022-09-01T19:02:32.281Z,97656.03
2022-09-01T19:05:04.031Z,97651.38
2022-09-01T19:07:39.426Z,97658.53
2022-09-01T19:10:16.309Z,97657.38
2022-09-01T19:12:52.732Z,97650.72
2022-09-01T19:15:26.188Z,97660.94
2022-09-01T19:18:13.048Z,97659.25
2022-09-01T19:20:47.712Z,97661.41
2022-09-01T19:23:22.188Z,97657.00
2022-09-01T19:25:55.509Z,97660.00
2022-09-01T19:28:30.340Z,97662.59
2022-09-01T19:31:11.501Z,97663.81
2022-09-01T19:33:42.542Z,97654.22
2022-09-01T19:36:14.043Z,97662.34
2022-09-01T19:38:42.721Z,97670.31
2022-09-01T19:41:16.868Z,97664.81
2022-09-01T19:43:45.472Z,97667.16
2022-09-01T19:46:23.812Z,97672.84
2022-09-01T19:48:56.158Z,97672.75
2022-09-01T19:51:29.528Z,97673.72
2022-09-01T19:54:02.634Z,97677.91
2022-09-01T19:56:36.571Z,97674.31
2022-09-01T19:59:14.226Z,97683.75
2022-09-01T20:01:48.304Z,97679.44
2022-09-01T20:04:27.095Z,97689.91
2022-09-01T20:06:58.393Z,97683.38
2022-09-01T20:09:34.636Z,97684.94
2022-09-01T20:12:11.226Z,97688.88
2022-09-01T20:15:00.700Z,97685.25
2022-09-01T20:17:33.899Z,97684.09
2022-09-01T20:20:07.679Z,97681.75
2022-09-01T20:22:39.969Z,97686.88
2022-09-01T20:25:10.945Z,97682.78
2022-09-01T20:27:47.915Z,97671.94
2022-09-01T20:30:19.548Z,97669.94
2022-09-01T20:32:53.250Z,97682.78
2022-09-01T20:35:25.208Z,97675.44
2022-09-01T20:37:57.492Z,97688.25
2022-09-01T20:40:27.631Z,97677.66
2022-09-01T20:43:08.436Z,97690.38
2022-09-01T20:45:37.408Z,97686.63
2022-09-01T20:48:07.531Z,97691.94
2022-09-01T20:50:42.769Z,97690.75
2022-09-01T20:53:24.982Z,97688.31
2022-09-01T20:55:57.107Z,97693.25
2022-09-01T20:58:35.666Z,97692.75
2022-09-01T21:01:17.529Z,97689.69
2022-09-01T21:03:54.627Z,97689.13
2022-09-01T21:06:27.613Z,97698.75
2022-09-01T21:09:02.014Z,97699.94
2022-09-01T21:11:40.953Z,97701.06
2022-09-01T21:14:21.539Z,97689.50
2022-09-01T21:16:59.186Z,97691.22
2022-09-01T21:19:34.545Z,97696.97
2022-09-01T21:22:06.637Z,97697.25
2022-09-01T21:24:35.396Z,97696.25
2022-09-01T21:27:07.644Z,97694.38
2022-09-01T21:29:46.960Z,97703.50
2022-09-01T21:32:16.123Z,97698.16
2022-09-01T21:34:45.035Z,97697.34
2022-09-01T21:37:13.730Z,97690.81
2022-09-01T21:39:41.923Z,97692.88
2022-09-01T21:42:12.354Z,97687.91
2022-09-01T21:44:42.527Z,97679.50
2022-09-01T21:47:10.755Z,97693.06
2022-09-01T21:49:38.941Z,97689.78
2022-09-01T21:52:07.467Z,97691.25
2022-09-01T21:54:35.880Z,97691.47
2022-09-01T21:57:04.708Z,97686.50
2022-09-01T21:59:33.307Z,97680.94
2022-09-01T22:02:03.363Z,97663.34
2022-09-01T22:04:33.118Z,97656.69
2022-09-01T22:07:01.382Z,97668.16
2022-09-01T22:09:29.682Z,97673.16
2022-09-01T22:11:57.945Z,97670.53
2022-09-01T22:14:27.949Z,97667.66
2022-09-01T22:16:58.253Z,97655.84
2022-09-01T22:19:29.642Z,97662.28
2022-09-01T22:21:58.278Z,97664.97
2022-09-01T22:24:26.466Z,97651.44
2022-09-01T22:26:54.614Z,97661.34
2022-09-01T22:29:23.369Z,97666.63
2022-09-01T22:31:51.785Z,97663.53
2022-09-01T22:34:20.096Z,97668.28
2022-09-01T22:36:50.727Z,97654.94
2022-09-01T22:39:21.860Z,97656.25
2022-09-01T22:41:53.772Z,97657.41
2022-09-01T22:44:21.940Z,97654.56
2022-09-01T22:46:50.419Z,97655.88
2022-09-01T22:49:18.658Z,97644.13
2022-09-01T22:51:46.942Z,97650.25
2022-09-01T22:54:16.504Z,97640.91
2022-09-01T22:56:45.257Z,97642.81
2022-09-01T22:59:15.890Z,97644.50
2022-09-01T23:01:48.013Z,97644.69
2022-09-01T23:04:17.356Z,97645.44
2022-09-01T23:06:48.341Z,97651.09
2022-09-01T23:09:18.793Z,97647.72
2022-09-01T23:11:47.818Z,97648.34
2022-09-01T23:14:16.083Z,97648.22
2022-09-01T23:16:44.589Z,97653.13
2022-09-01T23:19:14.021Z,97665.44
2022-09-01T23:21:42.249Z,97657.78
2022-09-01T23:24:10.830Z,97663.00
2022-09-01T23:26:42.765Z,97661.22
2022-09-01T23:29:11.953Z,97658.66
2022-09-01T23:31:41.290Z,97651.97
2022-09-01T23:34:10.072Z,97659.00
2022-09-01T23:36:38.328Z,97656.56
2022-09-01T23:39:07.080Z,97653.72
2022-09-01T23:41:37.314Z,97658.78
2022-09-01T23:44:10.508Z,97654.28
2022-09-01T23:46:42.656Z,97652.97
2022-09-01T23:49:12.023Z,97652.25
2022-09-01T23:51:40.809Z,97645.75
2022-09-01T23:54:09.165Z,97649.50
2022-09-01T23:56:38.716Z,97646.34
2022-09-01T23:59:08.835Z,97657.13
